Time;durP1;ratioP1;P1;durP2;ratioP2;P2;SDS_P1;SDS_P2;PMS_P1;PMS_P2;Temp;Humidity;BMP_temperature;BMP_pressure;BME280_temperature;BME280_humidity;BME280_pressure;Samples;Min_cycle;Max_cycle;Signal;HPM_P1;HPM_P2
2021/06/24 00:01:06;;;;;;;8.77;3.45;;;22.80;97.60;;;;;;5092212;28;20506;-69
2021/06/24 00:04:10;;;;;;;10.38;3.30;;;22.70;97.70;;;;;;5092264;28;20043;-70
2021/06/24 00:07:14;;;;;;;8.20;3.42;;;22.60;98.20;;;;;;5092310;28;20051;-69
2021/06/24 00:10:20;;;;;;;11.57;4.57;;;22.50;98.90;;;;;;5091406;28;20051;-69
2021/06/24 00:13:25;;;;;;;12.10;3.85;;;22.40;99.30;;;;;;5092323;28;20043;-70
2021/06/24 00:16:29;;;;;;;13.82;4.03;;;22.30;99.50;;;;;;5090986;28;20041;-69
2021/06/24 00:19:33;;;;;;;13.05;3.78;;;22.30;99.90;;;;;;5091577;28;20051;-69
2021/06/24 00:22:37;;;;;;;15.57;4.03;;;22.30;99.90;;;;;;5092192;28;20066;-69
2021/06/24 00:25:42;;;;;;;10.68;3.38;;;22.20;99.90;;;;;;5091335;28;20051;-69
2021/06/24 00:28:46;;;;;;;7.65;3.53;;;22.20;99.90;;;;;;5090200;28;20055;-69
2021/06/24 00:31:50;;;;;;;7.30;3.60;;;22.30;99.90;;;;;;5090702;28;20043;-69
2021/06/24 00:35:00;;;;;;;12.40;5.13;;;22.20;99.90;;;;;;5090472;28;20739;-69
2021/06/24 00:38:04;;;;;;;11.48;4.28;;;22.20;99.90;;;;;;5091695;28;20043;-68
2021/06/24 00:41:09;;;;;;;7.97;3.95;;;22.20;99.90;;;;;;5089701;28;20058;-69
2021/06/24 00:44:14;;;;;;;13.43;4.03;;;22.20;99.90;;;;;;5091229;28;20047;-68
2021/06/24 00:47:19;;;;;;;8.10;3.90;;;22.10;99.90;;;;;;5091385;28;20054;-68
2021/06/24 00:50:25;;;;;;;13.18;3.90;;;22.10;99.90;;;;;;5090606;28;20043;-69
2021/06/24 00:53:30;;;;;;;14.27;4.68;;;22.10;99.90;;;;;;5091596;28;20047;-68
2021/06/24 00:56:34;;;;;;;14.65;4.18;;;22.10;99.90;;;;;;5090480;28;20035;-69
2021/06/24 00:59:39;;;;;;;10.85;4.32;;;22.10;99.90;;;;;;5091102;28;20058;-68
2021/06/24 01:02:43;;;;;;;12.02;4.50;;;22.20;99.90;;;;;;5091090;28;20050;-68
2021/06/24 01:05:48;;;;;;;13.52;3.90;;;22.20;99.90;;;;;;5090446;28;20383;-69
2021/06/24 01:08:55;;;;;;;13.05;4.38;;;22.10;99.90;;;;;;5090300;28;20473;-69
2021/06/24 01:12:03;;;;;;;12.60;3.97;;;22.00;99.90;;;;;;5090785;28;20047;-69
2021/06/24 01:15:09;;;;;;;10.93;4.40;;;21.90;99.90;;;;;;5102194;28;20043;-69
2021/06/24 01:18:14;;;;;;;11.38;4.90;;;21.80;99.90;;;;;;5090467;28;20050;-69
2021/06/24 01:21:18;;;;;;;11.43;4.18;;;21.90;99.90;;;;;;5090077;28;20051;-69
2021/06/24 01:24:23;;;;;;;9.82;3.95;;;21.70;99.90;;;;;;5090236;28;20394;-68
2021/06/24 01:27:28;;;;;;;13.10;4.93;;;21.60;99.90;;;;;;5089947;28;20043;-68
2021/06/24 01:30:34;;;;;;;12.07;4.53;;;21.50;99.90;;;;;;5089551;28;20055;-68
2021/06/24 01:33:38;;;;;;;15.05;4.60;;;21.50;99.90;;;;;;5089944;28;20497;-68
2021/06/24 01:36:43;;;;;;;16.48;5.03;;;21.40;99.90;;;;;;5088601;28;20066;-69
2021/06/24 01:39:50;;;;;;;10.60;4.90;;;21.30;99.90;;;;;;5090241;28;20051;-69
2021/06/24 01:42:55;;;;;;;11.23;4.95;;;21.20;99.90;;;;;;5089387;28;20039;-69
2021/06/24 01:45:59;;;;;;;12.77;4.75;;;21.10;99.90;;;;;;5089557;28;20079;-69
2021/06/24 01:49:04;;;;;;;16.63;5.65;;;21.10;99.90;;;;;;5089477;28;20038;-69
2021/06/24 01:52:10;;;;;;;12.30;4.80;;;21.00;99.90;;;;;;5089089;28;20055;-69
2021/06/24 01:55:16;;;;;;;24.98;5.88;;;20.90;99.90;;;;;;5090490;28;20035;-69
2021/06/24 01:58:30;;;;;;;13.27;5.10;;;20.90;99.90;;;;;;5089997;28;20043;-69
2021/06/24 02:01:46;;;;;;;13.23;4.88;;;20.90;99.90;;;;;;5077226;28;20494;-69
2021/06/24 02:05:13;;;;;;;11.10;4.10;;;20.90;99.90;;;;;;5089246;28;20047;-69
2021/06/24 02:08:22;;;;;;;16.48;4.75;;;21.00;99.90;;;;;;5089766;28;20498;-68
2021/06/24 02:11:45;;;;;;;13.63;5.45;;;21.00;99.90;;;;;;5089455;28;20039;-69
2021/06/24 02:14:51;;;;;;;13.88;5.13;;;21.00;99.90;;;;;;5089139;28;20078;-69
2021/06/24 02:17:58;;;;;;;10.55;4.47;;;20.90;99.90;;;;;;5089090;28;20596;-69
2021/06/24 02:21:15;;;;;;;11.23;4.78;;;21.00;99.90;;;;;;5088422;28;20047;-69
2021/06/24 02:24:26;;;;;;;13.23;4.80;;;21.00;99.90;;;;;;5089045;28;20027;-68
2021/06/24 02:27:30;;;;;;;11.10;4.90;;;21.00;99.90;;;;;;5089360;28;20043;-69
2021/06/24 02:30:52;;;;;;;;;;;20.90;99.90;;;;;;5089091;28;20051;-69
2021/06/24 02:33:58;;;;;;;12.25;4.55;;;20.80;99.90;;;;;;5089608;28;19912;-68
2021/06/24 02:37:14;;;;;;;15.35;4.95;;;20.70;99.90;;;;;;5089561;28;20043;-68
2021/06/24 02:40:37;;;;;;;10.95;5.43;;;20.70;99.90;;;;;;5089079;28;20055;-68
2021/06/24 02:43:43;;;;;;;13.68;4.82;;;20.70;99.90;;;;;;5090087;28;20067;-69
2021/06/24 02:46:47;;;;;;;10.45;4.50;;;20.70;99.90;;;;;;5089055;28;20043;-69
2021/06/24 02:49:51;;;;;;;15.98;5.75;;;20.80;99.90;;;;;;5092304;28;20083;-68
2021/06/24 02:52:57;;;;;;;10.60;5.10;;;20.80;99.90;;;;;;5093078;28;20059;-69
2021/06/24 02:56:02;;;;;;;12.70;4.90;;;20.70;99.90;;;;;;5092305;28;20394;-69
2021/06/24 02:59:15;;;;;;;11.77;4.70;;;20.70;99.90;;;;;;5091844;28;20521;-68
2021/06/24 03:02:20;;;;;;;14.07;5.10;;;20.70;99.90;;;;;;5091372;28;20418;-69
2021/06/24 03:05:25;;;;;;;11.82;5.03;;;20.70;99.90;;;;;;5104101;28;20036;-68
2021/06/24 03:08:30;;;;;;;11.82;5.25;;;20.70;99.90;;;;;;5095466;28;20506;-69
2021/06/24 03:11:42;;;;;;;16.92;5.93;;;20.70;99.90;;;;;;5072404;28;20038;-68
2021/06/24 03:14:46;;;;;;;15.88;5.47;;;20.60;99.90;;;;;;5072954;28;20051;-69
2021/06/24 03:17:51;;;;;;;19.75;6.13;;;20.50;99.90;;;;;;5071989;28;20048;-68
2021/06/24 03:20:59;;;;;;;16.27;6.18;;;20.50;99.90;;;;;;5083277;28;20035;-68
2021/06/24 03:24:04;;;;;;;12.18;5.32;;;20.50;99.90;;;;;;5083860;28;20047;-69
2021/06/24 03:27:10;;;;;;;21.00;6.13;;;20.60;99.90;;;;;;5072361;28;20039;-70
2021/06/24 03:30:28;;;;;;;17.27;5.80;;;20.60;99.90;;;;;;5071294;28;20040;-68
2021/06/24 03:33:33;;;;;;;15.98;6.00;;;20.60;99.90;;;;;;5071815;28;20047;-69
2021/06/24 03:36:38;;;;;;;18.95;5.60;;;20.60;99.90;;;;;;5071288;28;20043;-68
2021/06/24 03:39:47;;;;;;;22.58;6.32;;;20.60;99.90;;;;;;5083341;28;20408;-68
2021/06/24 03:42:53;;;;;;;15.23;5.65;;;20.60;99.90;;;;;;5072275;28;20051;-69
2021/06/24 03:45:58;;;;;;;22.98;6.15;;;20.60;99.90;;;;;;5071492;28;20044;-68
2021/06/24 03:49:09;;;;;;;14.18;5.15;;;20.60;99.90;;;;;;5071363;28;20059;-69
2021/06/24 03:52:17;;;;;;;20.15;5.82;;;20.60;99.90;;;;;;5071297;28;20036;-69
2021/06/24 03:55:35;;;;;;;23.73;6.50;;;20.40;99.90;;;;;;5083254;28;20039;-69
2021/06/24 03:58:43;;;;;;;15.93;5.93;;;20.30;99.90;;;;;;5071537;28;20051;-69
2021/06/24 04:01:49;;;;;;;25.45;5.47;;;20.30;99.90;;;;;;5082723;28;20043;-68
2021/06/24 04:04:54;;;;;;;15.82;5.85;;;20.30;99.90;;;;;;5072175;28;20055;-68
2021/06/24 04:07:59;;;;;;;16.05;5.50;;;20.30;99.90;;;;;;5075307;28;20039;-68
2021/06/24 04:11:05;;;;;;;22.48;5.95;;;20.40;99.90;;;;;;5091169;28;20043;-69
2021/06/24 04:14:09;;;;;;;13.60;5.00;;;20.50;99.90;;;;;;5103182;28;20050;-69
2021/06/24 04:17:35;;;;;;;14.77;5.78;;;20.60;99.90;;;;;;5092583;28;20482;-69
2021/06/24 04:20:40;;;;;;;22.58;6.03;;;20.80;99.90;;;;;;5091157;28;20055;-68
2021/06/24 04:23:46;;;;;;;20.60;6.03;;;21.00;99.90;;;;;;5090742;28;20051;-69
2021/06/24 04:26:51;;;;;;;23.02;5.75;;;21.10;99.90;;;;;;5090025;28;20043;-69
2021/06/24 04:29:58;;;;;;;20.35;5.38;;;21.40;99.90;;;;;;5089283;28;20054;-69
2021/06/24 04:33:02;;;;;;;18.73;5.15;;;21.90;99.90;;;;;;5091136;28;20391;-68
2021/06/24 04:36:15;;;;;;;19.20;4.75;;;22.60;99.90;;;;;;5089102;28;20055;-68
2021/06/24 04:39:22;;;;;;;20.50;5.25;;;23.40;99.90;;;;;;5090024;28;20051;-68
2021/06/24 04:42:28;;;;;;;11.20;3.63;;;24.20;99.90;;;;;;5089636;28;20399;-68
2021/06/24 04:45:49;;;;;;;15.32;4.00;;;25.00;99.90;;;;;;5088868;28;20059;-69
2021/06/24 04:48:56;;;;;;;15.63;4.60;;;26.00;99.40;;;;;;5090520;28;20051;-69
2021/06/24 04:52:18;;;;;;;15.60;3.40;;;26.70;98.30;;;;;;5090618;28;20051;-69
2021/06/24 04:55:40;;;;;;;17.67;4.00;;;27.30;97.60;;;;;;5090255;28;20038;-69
2021/06/24 04:58:53;;;;;;;14.55;3.22;;;28.20;96.50;;;;;;5089391;28;20058;-69
2021/06/24 05:02:17;;;;;;;20.92;4.20;;;29.00;95.10;;;;;;5089287;28;20379;-69
2021/06/24 05:05:42;;;;;;;16.85;4.38;;;29.50;94.40;;;;;;5088188;28;20513;-69
2021/06/24 05:08:47;;;;;;;17.02;5.00;;;30.30;93.40;;;;;;5081725;28;20505;-69
2021/06/24 05:11:51;;;;;;;19.63;4.70;;;30.70;92.80;;;;;;5087241;28;20039;-69
2021/06/24 05:14:55;;;;;;;18.60;7.43;;;30.90;93.70;;;;;;5090262;28;20031;-69
2021/06/24 05:17:59;;;;;;;25.20;9.55;;;31.20;93.40;;;;;;5089952;28;20039;-69
2021/06/24 05:21:04;;;;;;;22.27;8.90;;;31.60;93.00;;;;;;5087535;28;20043;-69
2021/06/24 05:24:09;;;;;;;22.02;7.20;;;32.00;92.70;;;;;;5089262;28;20043;-69
2021/06/24 05:27:15;;;;;;;19.63;6.55;;;32.40;92.20;;;;;;5088632;28;20544;-69
2021/06/24 05:30:21;;;;;;;20.63;6.63;;;32.90;91.60;;;;;;5084655;28;20035;-69
2021/06/24 05:33:25;;;;;;;26.10;6.30;;;33.10;91.50;;;;;;5086330;28;20473;-69
2021/06/24 05:36:31;;;;;;;10.75;4.38;;;33.20;91.10;;;;;;5088983;28;20043;-69
2021/06/24 05:39:35;;;;;;;14.23;4.60;;;33.40;90.50;;;;;;5091018;28;20051;-69
2021/06/24 05:42:40;;;;;;;13.65;4.40;;;33.40;90.70;;;;;;5090622;28;20043;-69
2021/06/24 05:45:44;;;;;;;16.17;4.30;;;33.40;90.40;;;;;;5087693;28;20059;-69
2021/06/24 05:48:51;;;;;;;14.63;4.20;;;33.50;90.00;;;;;;5088906;28;20035;-71
2021/06/24 05:51:56;;;;;;;17.45;4.35;;;33.80;89.30;;;;;;5085350;28;20043;-70
2021/06/24 05:55:00;;;;;;;11.32;4.43;;;33.80;87.80;;;;;;5087421;28;20043;-69
2021/06/24 05:58:05;;;;;;;18.30;5.35;;;32.60;90.30;;;;;;5091836;28;20063;-69
2021/06/24 06:01:09;;;;;;;14.60;5.32;;;29.60;92.70;;;;;;5091228;28;20050;-69
2021/06/24 06:04:14;;;;;;;11.48;5.05;;;28.90;94.10;;;;;;5090510;28;20047;-70
2021/06/24 06:07:19;;;;;;;16.27;5.13;;;28.90;94.10;;;;;;5090690;28;20047;-68
2021/06/24 06:10:23;;;;;;;12.38;5.10;;;28.20;94.70;;;;;;5089139;28;20075;-69
2021/06/24 06:13:27;;;;;;;14.95;5.00;;;28.30;94.00;;;;;;5088255;28;20375;-69
2021/06/24 06:16:31;;;;;;;19.63;4.75;;;28.40;94.40;;;;;;5074974;28;20386;-68
2021/06/24 06:19:35;;;;;;;13.48;4.35;;;28.00;95.20;;;;;;5091164;28;20058;-68
2021/06/24 06:22:39;;;;;;;12.25;4.50;;;27.70;95.60;;;;;;5092046;28;20047;-69
2021/06/24 06:25:46;;;;;;;13.73;4.07;;;28.00;95.70;;;;;;5095191;28;20379;-70
2021/06/24 06:28:52;;;;;;;9.40;3.83;;;28.40;95.30;;;;;;5094976;28;20594;-69
2021/06/24 06:31:56;;;;;;;13.77;3.90;;;27.40;96.30;;;;;;5094093;28;20043;-68
2021/06/24 06:35:00;;;;;;;12.05;4.05;;;28.60;95.60;;;;;;5094745;28;20047;-69
2021/06/24 06:38:04;;;;;;;8.55;3.55;;;29.70;94.90;;;;;;5093352;28;20043;-69
2021/06/24 06:41:09;;;;;;;12.65;3.95;;;30.50;93.30;;;;;;5092098;28;20430;-68
2021/06/24 06:44:13;;;;;;;17.10;4.53;;;29.80;93.40;;;;;;5085999;28;20055;-69
2021/06/24 06:47:16;;;;;;;17.20;4.50;;;30.00;93.50;;;;;;5094676;28;20402;-67
2021/06/24 06:50:21;;;;;;;13.43;3.50;;;30.50;92.60;;;;;;5093736;28;20066;-69
2021/06/24 06:53:25;;;;;;;14.10;3.85;;;31.00;92.20;;;;;;5094566;28;20035;-68
2021/06/24 06:56:31;;;;;;;10.75;3.55;;;32.30;91.10;;;;;;5093750;28;20055;-69
2021/06/24 06:59:35;;;;;;;13.10;4.10;;;32.80;90.30;;;;;;5094658;28;20058;-69
2021/06/24 07:02:39;;;;;;;13.85;3.90;;;32.50;90.40;;;;;;5094329;28;20098;-69
2021/06/24 07:05:43;;;;;;;13.30;3.83;;;33.00;89.60;;;;;;5093392;28;20422;-69
2021/06/24 07:08:47;;;;;;;18.30;3.60;;;33.70;88.50;;;;;;5084847;28;20047;-69
2021/06/24 07:11:51;;;;;;;21.27;4.10;;;33.80;86.40;;;;;;5093325;28;20047;-70
2021/06/24 07:14:58;;;;;;;19.25;4.43;;;34.20;86.10;;;;;;5094100;28;20047;-69
2021/06/24 07:18:02;;;;;;;18.60;4.28;;;34.00;86.20;;;;;;5093065;28;20043;-70
2021/06/24 07:21:06;;;;;;;12.57;4.03;;;34.70;85.70;;;;;;5093203;28;20051;-69
2021/06/24 07:24:10;;;;;;;17.50;4.28;;;32.30;88.60;;;;;;5093924;28;20055;-71
2021/06/24 07:27:14;;;;;;;17.98;4.32;;;32.80;88.00;;;;;;5093285;28;20050;-70
2021/06/24 07:30:19;;;;;;;17.52;4.50;;;34.80;85.60;;;;;;5093212;28;20045;-70
2021/06/24 07:33:24;;;;;;;15.80;4.40;;;35.80;84.20;;;;;;5093578;28;20039;-72
2021/06/24 07:36:30;;;;;;;12.05;3.78;;;36.60;82.20;;;;;;5093437;28;20042;-70
2021/06/24 07:39:34;;;;;;;10.63;3.17;;;35.30;80.90;;;;;;5092186;28;20497;-70
2021/06/24 07:42:40;;;;;;;10.48;3.30;;;33.80;84.60;;;;;;5093622;28;20536;-70
2021/06/24 07:45:44;;;;;;;12.27;4.20;;;34.50;85.40;;;;;;5079409;28;20485;-69
2021/06/24 07:48:48;;;;;;;18.38;3.88;;;36.10;83.10;;;;;;5082522;28;20047;-69
2021/06/24 07:51:52;;;;;;;14.43;3.70;;;35.80;82.40;;;;;;5073842;28;20070;-69
2021/06/24 07:54:56;;;;;;;17.23;4.03;;;37.40;80.70;;;;;;5089793;28;20370;-68
2021/06/24 07:58:02;;;;;;;15.55;3.85;;;36.00;80.00;;;;;;5091434;28;20039;-68
2021/06/24 08:01:07;;;;;;;18.30;3.53;;;35.40;82.40;;;;;;5092269;28;20051;-69
2021/06/24 08:04:11;;;;;;;19.50;3.78;;;35.90;82.30;;;;;;5073262;28;20051;-68
2021/06/24 08:07:15;;;;;;;14.10;3.22;;;35.40;82.60;;;;;;5073347;28;20048;-69
2021/06/24 08:10:20;;;;;;;14.23;3.58;;;36.90;80.30;;;;;;5071939;28;20047;-68
2021/06/24 08:13:25;;;;;;;18.25;3.67;;;38.10;77.60;;;;;;5073147;28;20048;-70
2021/06/24 08:16:31;;;;;;;13.63;3.28;;;38.60;77.70;;;;;;5072496;28;20043;-68
2021/06/24 08:19:35;;;;;;;19.48;3.60;;;38.60;76.40;;;;;;5072707;28;20043;-69
2021/06/24 08:22:40;;;;;;;14.10;4.03;;;40.20;75.40;;;;;;5072428;28;20396;-67
2021/06/24 08:25:45;;;;;;;18.83;3.63;;;38.70;73.60;;;;;;5071745;28;20039;-68
2021/06/24 08:28:50;;;;;;;15.50;3.75;;;38.20;74.90;;;;;;5071839;28;20060;-68
2021/06/24 08:31:54;;;;;;;13.23;3.42;;;38.40;75.90;;;;;;5086565;28;20039;-68
2021/06/24 08:34:59;;;;;;;11.38;3.50;;;36.90;74.80;;;;;;5071980;28;20495;-68
2021/06/24 08:38:05;;;;;;;15.02;3.50;;;38.20;74.30;;;;;;5080345;28;20044;-68
2021/06/24 08:41:12;;;;;;;9.10;2.83;;;37.50;74.90;;;;;;5089105;28;20391;-69
2021/06/24 08:44:18;;;;;;;9.18;2.33;;;38.70;72.90;;;;;;5090530;28;20118;-69
2021/06/24 08:47:23;;;;;;;9.93;3.38;;;38.10;71.80;;;;;;5088415;28;20498;-68
2021/06/24 08:50:28;;;;;;;10.25;3.30;;;37.90;72.30;;;;;;5090849;28;20039;-69
2021/06/24 08:53:34;;;;;;;17.33;3.30;;;37.90;72.00;;;;;;5091181;28;20047;-69
2021/06/24 08:56:40;;;;;;;15.02;3.58;;;39.40;72.20;;;;;;5091977;28;20493;-68
2021/06/24 08:59:45;;;;;;;18.65;3.13;;;38.80;70.80;;;;;;5091270;28;20050;-68
2021/06/24 09:02:51;;;;;;;12.40;3.78;;;39.50;71.50;;;;;;5089970;28;20074;-68
2021/06/24 09:05:56;;;;;;;20.50;3.00;;;41.70;68.80;;;;;;5090984;28;20106;-69
2021/06/24 09:09:00;;;;;;;7.05;1.80;;;41.80;68.20;;;;;;5091456;28;20390;-68
2021/06/24 09:12:10;;;;;;;9.52;2.60;;;41.70;64.80;;;;;;5089593;28;20047;-68
2021/06/24 09:15:14;;;;;;;10.57;2.67;;;40.90;66.10;;;;;;5086677;28;20039;-67
2021/06/24 09:18:23;;;;;;;6.50;2.08;;;40.40;65.00;;;;;;5083344;28;20044;-68
2021/06/24 09:21:27;;;;;;;7.03;1.90;;;38.30;66.60;;;;;;5088414;28;20039;-68
2021/06/24 09:24:34;;;;;;;8.02;2.00;;;38.20;64.80;;;;;;5090596;28;20051;-69
2021/06/24 09:27:47;;;;;;;9.95;2.00;;;39.90;65.40;;;;;;5090441;28;20071;-70
2021/06/24 09:30:51;;;;;;;17.05;2.22;;;42.10;64.20;;;;;;5087710;28;20059;-69
2021/06/24 09:34:05;;;;;;;9.80;1.67;;;38.40;64.20;;;;;;5084221;28;20043;-69
2021/06/24 09:37:10;;;;;;;10.75;2.35;;;41.60;64.80;;;;;;5090268;28;20395;-69
2021/06/24 09:40:15;;;;;;;13.63;2.25;;;43.70;64.00;;;;;;5087896;28;20473;-68
2021/06/24 09:43:22;;;;;;;7.78;2.28;;;44.70;63.20;;;;;;5081161;28;20047;-68
2021/06/24 09:46:30;;;;;;;15.70;2.78;;;39.90;65.40;;;;;;5090577;28;20067;-67
2021/06/24 09:49:35;;;;;;;12.77;2.97;;;38.00;67.90;;;;;;5090480;28;20066;-68
2021/06/24 09:52:39;;;;;;;11.30;2.65;;;38.80;66.40;;;;;;5090722;28;20062;-69
2021/06/24 09:55:43;;;;;;;8.75;2.70;;;38.20;66.90;;;;;;5085757;28;20054;-69
2021/06/24 09:58:49;;;;;;;10.23;2.97;;;41.60;66.10;;;;;;5089656;28;20046;-68
2021/06/24 10:01:53;;;;;;;8.10;2.42;;;44.00;65.20;;;;;;5089544;28;20055;-70
2021/06/24 10:04:58;;;;;;;9.25;2.35;;;42.50;65.40;;;;;;5089124;28;20044;-68
2021/06/24 10:08:04;;;;;;;14.23;3.47;;;43.10;64.00;;;;;;5084294;28;20061;-69
2021/06/24 10:11:08;;;;;;;9.60;2.70;;;45.30;64.20;;;;;;5068604;28;20067;-70
2021/06/24 10:14:15;;;;;;;10.00;2.60;;;45.80;62.80;;;;;;5070256;28;20052;-70
2021/06/24 10:17:19;;;;;;;12.50;2.65;;;46.00;62.20;;;;;;5069451;28;20392;-69
2021/06/24 10:20:26;;;;;;;6.68;2.10;;;47.00;60.40;;;;;;5072476;28;20513;-70
2021/06/24 10:23:33;;;;;;;11.00;2.20;;;46.90;60.80;;;;;;5090093;28;20039;-68
2021/06/24 10:26:50;;;;;;;13.85;2.58;;;47.40;60.30;;;;;;5090638;28;20051;-69
2021/06/24 10:29:55;;;;;;;9.27;2.20;;;46.90;60.50;;;;;;5090272;28;20051;-70
2021/06/24 10:33:08;;;;;;;9.73;2.67;;;46.90;60.20;;;;;;5070378;28;20047;-70
2021/06/24 10:36:13;;;;;;;9.77;1.90;;;46.40;58.50;;;;;;5069614;28;20044;-69
2021/06/24 10:39:34;;;;;;;7.35;2.17;;;46.20;59.40;;;;;;5083243;28;20039;-68
2021/06/24 10:42:53;;;;;;;9.20;2.00;;;45.50;58.80;;;;;;5088462;28;20390;-68
2021/06/24 10:46:13;;;;;;;10.70;2.40;;;45.10;61.90;;;;;;5091039;28;20047;-70
2021/06/24 10:49:23;;;;;;;;;;;46.20;59.80;;;;;;5091266;28;20473;-69
2021/06/24 10:52:35;;;;;;;5.93;2.15;;;46.50;58.80;;;;;;5090732;28;19919;-70
2021/06/24 10:55:47;;;;;;;7.05;1.90;;;45.70;58.20;;;;;;5090595;28;20378;-69
2021/06/24 10:58:51;;;;;;;22.90;2.63;;;45.10;57.40;;;;;;5089651;28;20047;-69
2021/06/24 11:02:09;;;;;;;9.90;1.90;;;43.60;59.70;;;;;;5090093;28;20520;-70
2021/06/24 11:05:18;;;;;;;8.45;1.77;;;42.50;59.60;;;;;;5089516;28;20047;-70
2021/06/24 11:08:30;;;;;;;8.00;2.00;;;42.10;60.50;;;;;;5083339;28;20056;-70
2021/06/24 11:11:42;;;;;;;5.90;1.88;;;43.00;60.50;;;;;;5079427;28;20512;-70
2021/06/24 11:15:02;;;;;;;7.72;1.70;;;43.70;58.10;;;;;;5090954;28;20039;-70
2021/06/24 11:18:06;;;;;;;6.03;2.28;;;43.50;58.20;;;;;;5073858;28;20048;-69
2021/06/24 11:21:36;;;;;;;8.40;2.05;;;43.60;60.10;;;;;;5085808;28;20039;-70
2021/06/24 11:24:56;;;;;;;4.43;1.77;;;43.70;59.80;;;;;;5092512;28;20382;-70
2021/06/24 11:32:39;;;;;;;10.85;1.80;;;41.90;60.30;;;;;;5075984;28;20066;-67
2021/06/24 11:36:08;;;;;;;4.85;2.05;;;41.10;61.20;;;;;;5085084;28;20047;-69
2021/06/24 11:39:41;;;;;;;6.90;1.70;;;41.10;59.80;;;;;;5088582;28;20055;-68
2021/06/24 11:42:47;;;;;;;6.43;1.60;;;41.10;60.50;;;;;;5090686;28;20067;-68
2021/06/24 11:46:01;;;;;;;5.18;1.67;;;39.50;62.20;;;;;;5082044;28;20382;-68
2021/06/24 11:49:15;;;;;;;10.60;1.70;;;39.00;62.50;;;;;;5081432;28;20399;-68
2021/06/24 12:06:11;;;;;;;5.05;1.95;;;39.30;61.80;;;;;;5088016;28;20043;-68
2021/06/24 12:09:23;;;;;;;6.07;2.00;;;39.30;61.70;;;;;;5084768;28;20035;-67
2021/06/24 12:12:28;;;;;;;5.15;1.70;;;39.60;61.10;;;;;;5088274;28;20051;-68
2021/06/24 12:15:32;;;;;;;2.95;1.40;;;39.40;60.80;;;;;;5083214;28;20056;-68
2021/06/24 12:18:38;;;;;;;5.90;1.80;;;39.30;60.60;;;;;;5083616;28;20042;-70
2021/06/24 12:21:52;;;;;;;9.35;1.70;;;39.70;61.20;;;;;;5081516;28;20039;-69
2021/06/24 12:24:57;;;;;;;6.90;1.80;;;40.60;60.00;;;;;;5080278;28;20047;-69
2021/06/24 12:28:03;;;;;;;8.30;2.05;;;40.40;60.10;;;;;;5081654;28;20043;-69
2021/06/24 12:31:22;;;;;;;6.00;2.00;;;39.80;60.70;;;;;;5083599;28;20050;-69
2021/06/24 12:34:26;;;;;;;7.35;1.85;;;40.00;60.70;;;;;;5082072;28;20048;-69
2021/06/24 12:37:42;;;;;;;7.75;1.90;;;40.20;61.00;;;;;;5080462;28;20629;-69
2021/06/24 12:40:53;;;;;;;4.28;1.92;;;40.70;59.80;;;;;;5082934;28;20360;-69
2021/06/24 12:44:04;;;;;;;5.28;1.75;;;40.70;58.80;;;;;;5082389;28;20055;-68
2021/06/24 12:47:08;;;;;;;9.52;2.10;;;39.30;60.30;;;;;;5078639;28;20308;-68
2021/06/24 12:50:23;;;;;;;8.57;2.30;;;39.20;61.00;;;;;;5079558;28;20403;-68
2021/06/24 12:53:49;;;;;;;7.55;2.17;;;37.60;62.80;;;;;;5080761;28;20032;-68
2021/06/24 12:56:53;;;;;;;7.90;2.10;;;37.20;63.00;;;;;;5078247;28;20039;-69
2021/06/24 12:59:57;;;;;;;10.75;2.42;;;35.70;65.60;;;;;;5086677;28;20043;-69
2021/06/24 13:03:02;;;;;;;7.03;2.05;;;35.00;67.00;;;;;;5085361;28;20067;-69
2021/06/24 13:06:11;;;;;;;8.90;2.95;;;34.80;66.40;;;;;;5081416;28;20047;-69
2021/06/24 13:09:17;;;;;;;7.40;2.53;;;35.80;64.80;;;;;;5084989;28;20030;-68
2021/06/24 13:12:21;;;;;;;4.88;2.03;;;34.30;65.60;;;;;;5082567;28;20047;-69
2021/06/24 13:15:34;;;;;;;14.55;2.80;;;34.60;66.30;;;;;;5085887;28;20429;-67
2021/06/24 13:18:52;;;;;;;13.57;2.75;;;34.30;67.70;;;;;;5080267;28;20516;-69
2021/06/24 13:22:16;;;;;;;9.18;2.45;;;34.10;69.60;;;;;;5081767;28;20051;-70
2021/06/24 13:25:21;;;;;;;10.32;2.15;;;33.10;71.00;;;;;;5086667;28;20039;-67
2021/06/24 13:28:26;;;;;;;12.07;3.05;;;33.10;70.70;;;;;;5082976;28;21161;-69
2021/06/24 13:31:33;;;;;;;9.15;2.80;;;33.00;71.50;;;;;;5084578;28;20497;-69
2021/06/24 13:34:40;;;;;;;7.45;2.35;;;32.80;71.10;;;;;;5078987;28;20051;-68
2021/06/24 13:37:53;;;;;;;13.50;2.92;;;32.60;70.90;;;;;;5085489;28;20597;-69
2021/06/24 13:41:00;;;;;;;10.60;3.00;;;32.10;73.20;;;;;;5079079;28;20043;-68
2021/06/24 13:44:07;;;;;;;12.38;2.95;;;32.30;71.40;;;;;;5080479;28;20051;-70
2021/06/24 13:47:11;;;;;;;8.60;2.67;;;32.70;71.80;;;;;;5087246;28;20051;-70
2021/06/24 13:50:16;;;;;;;6.35;2.13;;;33.40;71.20;;;;;;5081800;28;20043;-69
2021/06/24 13:53:22;;;;;;;8.52;2.63;;;33.90;70.30;;;;;;5084580;28;20383;-70
2021/06/24 13:56:27;;;;;;;8.13;2.70;;;34.40;69.60;;;;;;5078766;28;20043;-70
2021/06/24 13:59:34;;;;;;;9.88;2.85;;;34.50;70.90;;;;;;5089343;28;20050;-70
2021/06/24 14:02:39;;;;;;;6.57;2.50;;;34.80;68.90;;;;;;5078761;28;20047;-69
2021/06/24 14:05:44;;;;;;;12.52;3.13;;;35.10;67.80;;;;;;5080094;28;20784;-69
2021/06/24 14:08:49;;;;;;;11.10;2.45;;;35.90;67.50;;;;;;5072551;28;20051;-69
2021/06/24 14:11:53;;;;;;;7.28;2.33;;;36.80;68.20;;;;;;5070277;28;20521;-68
2021/06/24 14:14:57;;;;;;;8.40;2.33;;;37.00;67.50;;;;;;5071093;28;20052;-67
2021/06/24 14:18:02;;;;;;;13.65;2.28;;;34.80;68.80;;;;;;5071029;28;20051;-67
2021/06/24 14:21:13;;;;;;;6.88;1.90;;;34.20;72.50;;;;;;5069374;28;20056;-68
2021/06/24 14:24:17;;;;;;;6.03;2.60;;;34.90;74.10;;;;;;5070086;28;20047;-68
2021/06/24 14:27:21;;;;;;;10.00;1.90;;;35.20;73.60;;;;;;5069271;28;20274;-68
2021/06/24 14:30:26;;;;;;;7.35;2.00;;;35.50;73.50;;;;;;5069015;28;20589;-68
2021/06/24 14:33:32;;;;;;;5.45;2.30;;;35.30;73.50;;;;;;5069834;28;20043;-69
2021/06/24 14:36:36;;;;;;;5.63;2.10;;;35.20;74.40;;;;;;5069418;28;20095;-67
2021/06/24 14:39:40;;;;;;;12.93;2.30;;;35.10;74.90;;;;;;5069504;28;20383;-69
2021/06/24 14:42:44;;;;;;;7.03;1.85;;;34.90;74.90;;;;;;5069704;28;20056;-68
2021/06/24 14:45:49;;;;;;;5.80;1.80;;;34.60;75.30;;;;;;5073427;28;20051;-67
2021/06/24 14:48:53;;;;;;;5.72;2.17;;;34.10;74.70;;;;;;5073449;28;20162;-68
2021/06/24 14:51:58;;;;;;;6.45;2.25;;;33.60;76.10;;;;;;5071463;28;20044;-66
2021/06/24 14:55:03;;;;;;;5.28;1.77;;;33.30;76.90;;;;;;5073349;28;20039;-67
2021/06/24 14:58:08;;;;;;;10.48;2.22;;;33.10;76.80;;;;;;5072909;28;20391;-67
2021/06/24 15:01:12;;;;;;;5.90;2.00;;;33.00;77.60;;;;;;5072861;28;20398;-69
2021/06/24 15:04:16;;;;;;;10.02;1.73;;;33.00;77.50;;;;;;5073130;28;20059;-69
2021/06/24 15:07:21;;;;;;;7.75;2.15;;;33.00;77.50;;;;;;5073206;28;20518;-67
2021/06/24 15:10:26;;;;;;;7.10;1.75;;;32.90;77.20;;;;;;5072737;28;20158;-68
2021/06/24 15:13:30;;;;;;;6.97;1.70;;;32.80;76.50;;;;;;5072930;28;20047;-68
2021/06/24 15:16:34;;;;;;;4.15;1.60;;;32.80;76.60;;;;;;5072849;28;20051;-68
2021/06/24 15:19:38;;;;;;;5.30;1.40;;;32.70;77.00;;;;;;5072807;28;20055;-67
2021/06/24 15:22:47;;;;;;;7.32;1.70;;;32.50;76.80;;;;;;5072592;28;20043;-68
2021/06/24 15:25:52;;;;;;;4.95;1.60;;;32.50;76.90;;;;;;5072610;28;20047;-68
2021/06/24 15:28:56;;;;;;;8.68;1.55;;;32.50;75.00;;;;;;5072673;28;20052;-67
2021/06/24 15:32:00;;;;;;;4.75;1.50;;;32.40;75.00;;;;;;5072081;28;20498;-68
2021/06/24 15:35:07;;;;;;;4.57;1.45;;;32.20;75.60;;;;;;5071524;28;20035;-68
2021/06/24 15:38:12;;;;;;;5.13;1.73;;;32.00;75.20;;;;;;5072397;28;20505;-68
2021/06/24 15:41:17;;;;;;;5.45;1.55;;;31.70;75.80;;;;;;5071516;28;20047;-68
2021/06/24 15:44:21;;;;;;;4.90;1.60;;;31.60;75.50;;;;;;5072609;28;20035;-68
2021/06/24 15:47:25;;;;;;;19.90;2.35;;;31.50;76.10;;;;;;5072713;28;20238;-68
2021/06/24 15:50:33;;;;;;;3.97;2.40;;;31.50;76.20;;;;;;5071507;28;20061;-68
2021/06/24 15:53:37;;;;;;;5.57;1.98;;;31.50;76.20;;;;;;5071440;28;20039;-69
2021/06/24 15:56:42;;;;;;;4.45;1.98;;;31.60;77.00;;;;;;5071282;28;20035;-67
2021/06/24 15:59:49;;;;;;;8.75;1.70;;;31.60;76.10;;;;;;5072555;28;20035;-69
2021/06/24 16:02:53;;;;;;;5.38;1.83;;;31.40;75.80;;;;;;5071701;28;20059;-67
2021/06/24 16:05:58;;;;;;;9.93;2.05;;;31.40;77.00;;;;;;5072079;28;20423;-68
2021/06/24 16:09:03;;;;;;;4.53;1.75;;;31.30;76.40;;;;;;5085690;28;20058;-67
2021/06/24 16:12:09;;;;;;;7.00;1.63;;;31.20;76.90;;;;;;5091314;28;20050;-67
2021/06/24 16:15:14;;;;;;;11.93;1.75;;;30.70;77.70;;;;;;5092531;28;20482;-67
2021/06/24 16:18:18;;;;;;;7.88;1.75;;;30.60;77.70;;;;;;5091841;28;20035;-68
2021/06/24 16:21:22;;;;;;;5.55;1.90;;;30.60;77.50;;;;;;5090531;28;20043;-68
2021/06/24 16:24:27;;;;;;;6.97;4.30;;;30.60;77.90;;;;;;5092329;28;20050;-67